createdAt,value
2023-01-15T00:00:37.627Z,0.87
2023-01-15T00:03:05.954Z,0.91
2023-01-15T00:05:36.928Z,0.94
2023-01-15T00:08:05.796Z,0.98
2023-01-15T00:10:34.044Z,1.01
2023-01-15T00:13:03.810Z,1.02
2023-01-15T00:15:32.303Z,1.00
2023-01-15T00:18:07.827Z,1.03
2023-01-15T00:20:36.052Z,1.07
2023-01-15T00:23:27.234Z,1.08
2023-01-15T00:26:21.069Z,1.14
2023-01-15T00:28:51.140Z,1.15
2023-01-15T00:31:19.355Z,1.20
2023-01-15T00:33:49.721Z,1.23
2023-01-15T00:36:19.087Z,1.30
2023-01-15T00:38:47.389Z,1.34
2023-01-15T00:41:17.565Z,1.40
2023-01-15T00:43:46.521Z,1.42
2023-01-15T00:46:17.210Z,1.48
2023-01-15T00:48:49.007Z,1.53
2023-01-15T00:51:17.131Z,1.54
2023-01-15T00:53:49.669Z,1.57
2023-01-15T00:56:19.603Z,1.59
2023-01-15T00:58:48.375Z,1.63
2023-01-15T01:01:17.965Z,1.66
2023-01-15T01:03:49.153Z,1.68
2023-01-15T01:06:17.435Z,1.70
2023-01-15T01:08:46.230Z,1.71
2023-01-15T01:11:15.769Z,1.77
2023-01-15T01:13:44.503Z,1.79
2023-01-15T01:16:30.506Z,1.83
2023-01-15T01:18:59.543Z,1.87
2023-01-15T01:21:28.089Z,1.90
2023-01-15T01:23:56.477Z,1.95
2023-01-15T01:26:24.577Z,1.90
2023-01-15T01:28:53.696Z,1.88
2023-01-15T01:31:23.053Z,1.89
2023-01-15T01:33:52.942Z,1.78
2023-01-15T01:36:21.310Z,1.77
2023-01-15T01:38:50.887Z,1.72
2023-01-15T01:41:19.357Z,1.68
2023-01-15T01:43:56.705Z,1.67
2023-01-15T01:46:25.628Z,1.69
2023-01-15T01:48:56.989Z,1.69
2023-01-15T01:51:27.366Z,1.67
2023-01-15T01:53:56.014Z,1.69
2023-01-15T01:56:24.320Z,1.67
2023-01-15T01:58:55.084Z,1.67
2023-01-15T02:01:24.205Z,1.64
2023-01-15T02:03:54.505Z,1.66
2023-01-15T02:06:25.890Z,1.67
2023-01-15T02:08:54.027Z,1.67
2023-01-15T02:11:23.620Z,1.71
2023-01-15T02:13:56.007Z,1.75
2023-01-15T02:16:26.285Z,1.75
2023-01-15T02:18:58.921Z,1.82
2023-01-15T02:21:41.340Z,1.84
2023-01-15T02:24:18.195Z,1.85
2023-01-15T02:27:03.343Z,1.88
2023-01-15T02:29:36.944Z,1.90
2023-01-15T02:32:09.597Z,1.93
2023-01-15T02:34:39.767Z,1.99
2023-01-15T02:37:12.248Z,2.05
2023-01-15T02:39:43.583Z,2.06
2023-01-15T02:42:14.108Z,2.13
2023-01-15T02:44:49.202Z,2.11
2023-01-15T02:47:18.329Z,2.13
2023-01-15T02:49:48.322Z,2.08
2023-01-15T02:52:22.439Z,2.04
2023-01-15T02:54:54.697Z,2.02
2023-01-15T02:57:26.730Z,1.95
2023-01-15T02:59:59.323Z,1.95
2023-01-15T03:02:30.156Z,1.90
2023-01-15T03:05:01.682Z,1.86
2023-01-15T03:07:34.074Z,1.86
2023-01-15T03:10:02.605Z,1.85
2023-01-15T03:12:59.768Z,1.82
2023-01-15T03:15:50.582Z,1.78
2023-01-15T03:18:20.711Z,1.75
2023-01-15T03:20:52.095Z,1.74
2023-01-15T03:23:22.426Z,1.76
2023-01-15T03:25:51.151Z,1.70
2023-01-15T03:28:24.961Z,1.69
2023-01-15T03:30:54.237Z,1.69
2023-01-15T03:33:22.285Z,1.65
2023-01-15T03:35:53.497Z,1.62
2023-01-15T03:38:36.507Z,1.60
2023-01-15T03:41:11.990Z,1.61
2023-01-15T03:43:48.377Z,1.60
2023-01-15T03:46:32.343Z,1.60
2023-01-15T03:49:03.158Z,1.61
2023-01-15T03:51:36.667Z,1.61
2023-01-15T03:54:08.617Z,1.61
2023-01-15T03:56:43.100Z,1.62
2023-01-15T03:59:16.228Z,1.63
2023-01-15T04:01:55.264Z,1.63
2023-01-15T04:04:25.135Z,1.67
2023-01-15T04:06:54.681Z,1.72
2023-01-15T04:09:23.264Z,1.78
2023-01-15T04:11:55.046Z,1.76
2023-01-15T04:14:24.955Z,1.80
2023-01-15T04:16:56.055Z,1.80
2023-01-15T04:19:25.924Z,1.82
2023-01-15T04:22:06.355Z,1.75
2023-01-15T04:24:34.989Z,1.77
2023-01-15T04:27:03.280Z,1.79
2023-01-15T04:29:32.920Z,1.76
2023-01-15T04:32:01.319Z,1.77
2023-01-15T04:34:29.800Z,1.79
2023-01-15T04:36:58.685Z,1.78
2023-01-15T04:39:26.821Z,1.77
2023-01-15T04:42:12.448Z,1.76
2023-01-15T04:44:42.550Z,1.74
2023-01-15T04:47:10.739Z,1.70
2023-01-15T04:49:38.889Z,1.67
2023-01-15T04:52:07.011Z,1.63
2023-01-15T04:54:35.306Z,1.61
2023-01-15T04:57:03.620Z,1.60
2023-01-15T04:59:31.876Z,1.55
2023-01-15T05:02:05.773Z,1.58
2023-01-15T05:04:35.108Z,1.54
2023-01-15T05:07:03.487Z,1.52
2023-01-15T05:09:31.772Z,1.52
2023-01-15T05:12:00.396Z,1.54
2023-01-15T05:14:28.484Z,1.52
2023-01-15T05:16:56.575Z,1.54
2023-01-15T05:19:26.518Z,1.54
2023-01-15T05:21:54.960Z,1.47
2023-01-15T05:24:23.341Z,1.41
2023-01-15T05:26:51.403Z,1.43
2023-01-15T05:29:19.707Z,1.37
2023-01-15T05:31:48.054Z,1.34
2023-01-15T05:34:16.456Z,1.32
2023-01-15T05:36:46.442Z,1.30
2023-01-15T05:39:14.973Z,1.23
2023-01-15T05:41:52.919Z,1.17
2023-01-15T05:44:23.090Z,1.12
2023-01-15T05:46:52.362Z,1.09
2023-01-15T05:49:21.651Z,1.07
2023-01-15T05:51:51.433Z,1.03
2023-01-15T05:54:20.525Z,1.01
2023-01-15T05:56:49.356Z,1.00
2023-01-15T05:59:18.248Z,1.00
2023-01-15T06:01:46.552Z,1.03
2023-01-15T06:04:15.495Z,1.01
2023-01-15T06:06:43.606Z,0.97
2023-01-15T06:09:13.141Z,0.95
2023-01-15T06:11:47.589Z,0.95
2023-01-15T06:14:16.563Z,0.94
2023-01-15T06:16:45.024Z,0.94
2023-01-15T06:19:13.896Z,0.94
2023-01-15T06:21:42.567Z,0.92
2023-01-15T06:24:10.921Z,0.93
2023-01-15T06:26:41.142Z,0.93
2023-01-15T06:29:09.526Z,0.92
2023-01-15T06:31:37.665Z,0.94
2023-01-15T06:34:05.830Z,0.97
2023-01-15T06:36:34.509Z,1.01
2023-01-15T06:39:05.093Z,1.00
2023-01-15T06:41:50.957Z,1.00
2023-01-15T06:44:38.141Z,0.95
2023-01-15T06:47:24.260Z,0.97
2023-01-15T06:49:53.689Z,0.98
2023-01-15T06:52:21.959Z,0.98
2023-01-15T06:54:50.128Z,0.98
2023-01-15T06:57:19.093Z,1.00
2023-01-15T06:59:48.884Z,1.00
2023-01-15T07:02:18.204Z,1.00
2023-01-15T07:04:46.941Z,0.99
2023-01-15T07:07:15.176Z,0.99
2023-01-15T07:09:43.570Z,0.98
2023-01-15T07:12:12.269Z,0.99
2023-01-15T07:14:40.726Z,0.98
2023-01-15T07:17:10.599Z,1.00
2023-01-15T07:19:38.937Z,0.99
2023-01-15T07:22:08.320Z,0.98
2023-01-15T07:24:36.820Z,0.98
2023-01-15T07:27:05.018Z,0.98
2023-01-15T07:29:35.247Z,1.01
2023-01-15T07:32:03.661Z,0.97
2023-01-15T07:34:33.601Z,0.94
2023-01-15T07:37:01.785Z,0.90
2023-01-15T07:39:31.832Z,0.84
2023-01-15T07:42:17.493Z,0.81
2023-01-15T07:45:04.017Z,0.76
2023-01-15T07:47:49.649Z,0.76
2023-01-15T07:50:20.491Z,0.74
2023-01-15T07:52:48.639Z,0.80
2023-01-15T07:55:17.377Z,0.81
2023-01-15T07:57:45.957Z,0.86
2023-01-15T08:00:15.812Z,0.91
2023-01-15T08:02:46.171Z,0.97
2023-01-15T08:05:14.609Z,1.02
2023-01-15T08:07:45.503Z,1.06
2023-01-15T08:10:14.241Z,1.07
2023-01-15T08:12:59.680Z,1.10
2023-01-15T08:15:28.251Z,1.15
2023-01-15T08:17:56.809Z,1.20
2023-01-15T08:20:26.129Z,1.24
2023-01-15T08:22:55.851Z,1.28
2023-01-15T08:25:24.819Z,1.31
2023-01-15T08:27:53.038Z,1.35
2023-01-15T08:30:22.872Z,1.37
2023-01-15T08:32:51.381Z,1.37
2023-01-15T08:35:19.797Z,1.39
2023-01-15T08:37:47.953Z,1.44
2023-01-15T08:40:17.791Z,1.45
2023-01-15T08:42:46.441Z,1.49
2023-01-15T08:45:14.904Z,1.55
2023-01-15T08:47:43.093Z,1.58
2023-01-15T08:50:11.956Z,1.62
2023-01-15T08:52:40.292Z,1.67
2023-01-15T08:55:09.350Z,1.70
2023-01-15T08:57:39.110Z,1.75
2023-01-15T09:00:07.895Z,1.81
2023-01-15T09:02:36.221Z,1.86
2023-01-15T09:05:04.416Z,1.88
2023-01-15T09:07:32.620Z,1.93
2023-01-15T09:10:00.726Z,1.99
2023-01-15T09:12:29.560Z,2.01
2023-01-15T09:15:02.839Z,2.06
2023-01-15T09:17:33.181Z,2.10
2023-01-15T09:20:03.248Z,2.15
2023-01-15T09:22:31.528Z,2.20
2023-01-15T09:24:59.808Z,2.22
2023-01-15T09:27:34.215Z,2.27
2023-01-15T09:30:04.425Z,2.31
2023-01-15T09:32:33.230Z,2.37
2023-01-15T09:35:01.557Z,2.41
2023-01-15T09:37:29.798Z,2.48
2023-01-15T09:39:57.959Z,2.49
2023-01-15T09:42:36.838Z,2.60
2023-01-15T09:45:15.220Z,2.68
2023-01-15T09:47:48.404Z,2.75
2023-01-15T09:50:20.819Z,2.85
2023-01-15T09:52:59.086Z,2.93
2023-01-15T09:55:28.908Z,3.02
2023-01-15T09:57:58.497Z,3.11
2023-01-15T10:00:29.132Z,3.17
2023-01-15T10:03:00.828Z,3.24
2023-01-15T10:05:30.865Z,3.33
2023-01-15T10:08:00.437Z,3.40
2023-01-15T10:10:34.036Z,3.48
2023-01-15T10:13:07.810Z,3.57
2023-01-15T10:15:41.487Z,3.67
2023-01-15T10:18:13.864Z,3.76
2023-01-15T10:20:49.942Z,3.82
2023-01-15T10:23:27.192Z,3.90
2023-01-15T10:25:59.019Z,3.97
2023-01-15T10:28:30.138Z,4.13
2023-01-15T10:31:05.465Z,4.22
2023-01-15T10:33:51.749Z,4.27
2023-01-15T10:36:23.108Z,4.37
2023-01-15T10:39:02.153Z,4.45
2023-01-15T10:41:39.420Z,4.47
2023-01-15T10:44:14.465Z,4.50
2023-01-15T10:46:47.088Z,4.59
2023-01-15T10:49:17.115Z,4.69
2023-01-15T10:51:46.609Z,4.71
2023-01-15T10:54:18.706Z,4.73
2023-01-15T10:56:49.922Z,4.64
2023-01-15T10:59:22.369Z,4.67
2023-01-15T11:01:54.286Z,4.68
2023-01-15T11:04:22.943Z,4.72
2023-01-15T11:06:51.089Z,4.63
2023-01-15T11:09:21.071Z,4.62
2023-01-15T11:12:07.115Z,4.62
2023-01-15T11:14:54.008Z,4.64
2023-01-15T11:17:47.500Z,4.70
2023-01-15T11:20:22.571Z,4.65
2023-01-15T11:22:51.167Z,4.77
2023-01-15T11:25:27.085Z,4.77
2023-01-15T11:27:55.327Z,4.86
2023-01-15T11:30:27.952Z,4.76
2023-01-15T11:32:58.505Z,4.83
2023-01-15T11:35:27.337Z,4.87
2023-01-15T11:38:08.805Z,4.80
2023-01-15T11:40:37.133Z,4.88
2023-01-15T11:43:31.245Z,4.83
2023-01-15T11:46:16.680Z,4.72
2023-01-15T11:49:05.013Z,4.71
2023-01-15T11:51:39.380Z,4.73
2023-01-15T11:54:09.933Z,4.61
2023-01-15T11:56:58.248Z,4.61
2023-01-15T11:59:26.771Z,4.63
2023-01-15T12:01:59.418Z,4.55
2023-01-15T12:04:45.448Z,4.60
2023-01-15T12:07:18.460Z,4.64
2023-01-15T12:10:01.224Z,4.59
2023-01-15T12:12:35.416Z,4.56
2023-01-15T12:15:09.912Z,4.65
2023-01-15T12:17:56.580Z,4.64
2023-01-15T12:20:31.953Z,4.56
2023-01-15T12:23:18.915Z,4.54
2023-01-15T12:25:59.654Z,4.46
2023-01-15T12:28:35.698Z,4.45
2023-01-15T12:31:15.996Z,4.49
2023-01-15T12:33:53.548Z,4.57
2023-01-15T12:36:32.083Z,4.58
2023-01-15T12:39:09.884Z,4.49
2023-01-15T12:42:02.131Z,4.52
2023-01-15T12:44:55.405Z,4.50
2023-01-15T12:47:27.908Z,4.48
2023-01-15T12:50:01.563Z,4.74
2023-01-15T12:52:37.230Z,5.01
2023-01-15T12:55:20.719Z,5.28
2023-01-15T12:57:54.751Z,5.55
2023-01-15T13:00:32.032Z,5.79
2023-01-15T13:03:13.687Z,5.76
2023-01-15T13:05:50.256Z,6.09
2023-01-15T13:08:21.967Z,6.04
2023-01-15T13:10:57.269Z,6.27
2023-01-15T13:13:36.564Z,6.14
2023-01-15T13:16:15.456Z,6.25
2023-01-15T13:18:51.067Z,6.10
2023-01-15T13:21:27.211Z,6.12
2023-01-15T13:24:12.655Z,5.98
2023-01-15T13:26:54.100Z,5.96
2023-01-15T13:29:32.649Z,5.98
2023-01-15T13:32:03.594Z,5.92
2023-01-15T13:34:42.602Z,5.89
2023-01-15T13:37:17.744Z,5.79
2023-01-15T13:39:52.515Z,5.67
2023-01-15T13:42:38.030Z,5.64
2023-01-15T13:45:29.602Z,5.60
2023-01-15T13:48:09.072Z,5.55
2023-01-15T13:50:46.904Z,5.42
2023-01-15T13:53:22.189Z,5.37
2023-01-15T13:55:56.065Z,5.32
2023-01-15T13:58:29.934Z,5.28
2023-01-15T14:01:09.387Z,5.21
2023-01-15T14:03:42.313Z,5.12
2023-01-15T14:06:15.769Z,5.17
2023-01-15T14:08:46.342Z,5.15
2023-01-15T14:11:39.946Z,5.08
2023-01-15T14:14:28.947Z,5.06
2023-01-15T14:17:01.341Z,5.04
2023-01-15T14:19:41.318Z,5.05
2023-01-15T14:22:39.344Z,5.01
2023-01-15T14:25:22.835Z,5.09
2023-01-15T14:28:04.085Z,5.04
2023-01-15T14:30:51.910Z,5.08
2023-01-15T14:33:28.638Z,5.16
2023-01-15T14:36:02.426Z,5.13
2023-01-15T14:38:33.535Z,5.00
2023-01-15T14:41:04.799Z,4.90
2023-01-15T14:43:39.731Z,5.06
2023-01-15T14:46:19.607Z,5.06
2023-01-15T14:48:54.582Z,5.05
2023-01-15T14:51:33.102Z,5.00
2023-01-15T14:54:08.685Z,4.93
2023-01-15T14:56:45.149Z,4.97
2023-01-15T14:59:23.585Z,4.81
2023-01-15T15:02:02.028Z,4.71
2023-01-15T15:04:42.860Z,4.70
2023-01-15T15:07:18.264Z,4.64
2023-01-15T15:09:53.710Z,4.59
2023-01-15T15:12:27.229Z,4.54
2023-01-15T15:15:01.358Z,4.50
2023-01-15T15:17:35.199Z,4.48
2023-01-15T15:20:24.657Z,4.41
2023-01-15T15:23:00.815Z,4.33
2023-01-15T15:25:32.121Z,4.33
2023-01-15T15:28:06.815Z,4.27
2023-01-15T15:30:39.201Z,4.25
2023-01-15T15:33:18.289Z,4.26
2023-01-15T15:35:51.519Z,4.30
2023-01-15T15:38:23.699Z,4.30
2023-01-15T15:40:59.259Z,4.35
2023-01-15T15:43:50.592Z,4.44
2023-01-15T15:46:45.859Z,4.48
2023-01-15T15:49:18.753Z,4.50
2023-01-15T15:51:57.227Z,4.50
2023-01-15T15:54:34.334Z,4.49
2023-01-15T15:57:11.501Z,4.56
2023-01-15T15:59:51.540Z,4.61
2023-01-15T16:02:27.947Z,4.59
2023-01-15T16:05:04.336Z,4.60
2023-01-15T16:07:41.292Z,4.54
2023-01-15T16:10:25.171Z,4.52
2023-01-15T16:13:01.054Z,4.48
2023-01-15T16:15:36.811Z,4.39
2023-01-15T16:18:23.030Z,4.39
2023-01-15T16:20:54.091Z,4.35
2023-01-15T16:23:26.971Z,4.31
2023-01-15T16:26:08.767Z,4.17
2023-01-15T16:28:46.096Z,4.12
2023-01-15T16:31:21.302Z,4.05
2023-01-15T16:33:59.384Z,3.96
2023-01-15T16:36:54.560Z,3.84
2023-01-15T16:39:30.570Z,3.77
2023-01-15T16:42:05.453Z,3.67
2023-01-15T16:44:49.816Z,3.56
2023-01-15T16:47:23.386Z,3.51
2023-01-15T16:49:55.863Z,3.45
2023-01-15T16:52:53.079Z,3.44
2023-01-15T16:55:46.367Z,3.42
2023-01-15T16:58:21.103Z,3.42
2023-01-15T17:00:50.691Z,3.45
2023-01-15T17:03:25.792Z,3.44
2023-01-15T17:06:01.011Z,3.42
2023-01-15T17:08:36.607Z,3.42
2023-01-15T17:11:22.560Z,3.48
2023-01-15T17:13:52.383Z,3.49
2023-01-15T17:16:26.255Z,3.51
2023-01-15T17:18:59.960Z,3.49
2023-01-15T17:21:35.731Z,3.46
2023-01-15T17:24:13.612Z,3.42
2023-01-15T17:26:50.319Z,3.45
2023-01-15T17:29:24.278Z,3.43
2023-01-15T17:31:59.153Z,3.43
2023-01-15T17:34:35.396Z,3.43
2023-01-15T17:37:09.489Z,3.44
2023-01-15T17:39:44.458Z,3.44
2023-01-15T17:42:20.558Z,3.39
2023-01-15T17:44:53.742Z,3.44
2023-01-15T17:47:23.766Z,3.42
2023-01-15T17:49:56.793Z,3.43
2023-01-15T17:52:33.053Z,3.33
2023-01-15T17:55:22.965Z,3.30
2023-01-15T17:58:11.509Z,3.23
2023-01-15T18:00:59.982Z,3.15
2023-01-15T18:03:51.655Z,3.06
2023-01-15T18:06:23.683Z,2.98
2023-01-15T18:08:55.587Z,2.86
2023-01-15T18:11:23.891Z,2.79
2023-01-15T18:13:53.465Z,2.67
2023-01-15T18:16:21.921Z,2.52
2023-01-15T18:18:50.451Z,2.35
2023-01-15T18:21:18.697Z,2.21
2023-01-15T18:23:46.883Z,2.12
2023-01-15T18:26:14.934Z,2.03
2023-01-15T18:28:43.078Z,1.98
2023-01-15T18:31:12.730Z,1.86
2023-01-15T18:33:41.029Z,1.79
2023-01-15T18:36:10.407Z,1.72
2023-01-15T18:38:38.707Z,1.71
2023-01-15T18:41:07.731Z,1.69
2023-01-15T18:44:01.676Z,1.68
2023-01-15T18:46:47.397Z,1.68
2023-01-15T18:49:15.861Z,1.65
2023-01-15T18:51:43.929Z,1.68
2023-01-15T18:54:12.961Z,1.69
2023-01-15T18:56:42.901Z,1.71
2023-01-15T18:59:12.000Z,1.70
2023-01-15T19:01:42.560Z,1.68
2023-01-15T19:04:12.018Z,1.62
2023-01-15T19:06:40.568Z,1.58
2023-01-15T19:09:10.458Z,1.50
2023-01-15T19:11:39.132Z,1.43
2023-01-15T19:14:25.368Z,1.36
2023-01-15T19:17:14.364Z,1.29
2023-01-15T19:19:43.446Z,1.20
2023-01-15T19:22:28.966Z,1.08
2023-01-15T19:24:57.397Z,0.95
2023-01-15T19:27:25.620Z,0.90
2023-01-15T19:29:53.683Z,0.83
2023-01-15T19:32:23.920Z,0.77
2023-01-15T19:34:53.273Z,0.72
2023-01-15T19:37:22.416Z,0.63
2023-01-15T19:39:51.324Z,0.52
2023-01-15T19:42:37.876Z,0.44
2023-01-15T19:45:24.490Z,0.40
2023-01-15T19:48:12.013Z,0.36
2023-01-15T19:50:42.183Z,0.30
2023-01-15T19:53:11.083Z,0.23
2023-01-15T19:55:40.295Z,0.14
2023-01-15T19:58:10.279Z,0.13
2023-01-15T20:00:39.663Z,0.12
2023-01-15T20:03:10.684Z,0.05
2023-01-15T20:05:40.750Z,-0.02
2023-01-15T20:08:13.208Z,-0.05
2023-01-15T20:10:42.395Z,-0.10
2023-01-15T20:13:29.915Z,-0.16
2023-01-15T20:16:01.422Z,-0.21
2023-01-15T20:18:31.703Z,-0.24
2023-01-15T20:20:59.891Z,-0.23
2023-01-15T20:23:28.368Z,-0.23
2023-01-15T20:26:01.776Z,-0.28
2023-01-15T20:28:30.062Z,-0.34
2023-01-15T20:31:00.261Z,-0.39
2023-01-15T20:33:28.654Z,-0.43
2023-01-15T20:35:58.477Z,-0.47
2023-01-15T20:38:26.716Z,-0.49
2023-01-15T20:40:55.065Z,-0.56
2023-01-15T20:43:41.012Z,-0.61
2023-01-15T20:46:11.238Z,-0.63
2023-01-15T20:48:56.955Z,-0.68
2023-01-15T20:51:27.447Z,-0.76
2023-01-15T20:53:56.299Z,-0.76
2023-01-15T20:56:25.116Z,-0.82
2023-01-15T20:58:53.549Z,-0.88
2023-01-15T21:01:21.832Z,-0.95
2023-01-15T21:03:50.047Z,-1.01
2023-01-15T21:06:18.411Z,-1.08
2023-01-15T21:08:48.916Z,-1.12
2023-01-15T21:11:17.340Z,-1.16
2023-01-15T21:13:47.158Z,-1.19
2023-01-15T21:16:16.140Z,-1.20
2023-01-15T21:18:45.468Z,-1.24
2023-01-15T21:21:16.083Z,-1.25
2023-01-15T21:23:45.766Z,-1.30
2023-01-15T21:26:16.291Z,-1.36
2023-01-15T21:28:45.819Z,-1.36
2023-01-15T21:31:15.428Z,-1.38
2023-01-15T21:33:43.819Z,-1.43
2023-01-15T21:36:13.236Z,-1.45
2023-01-15T21:38:42.383Z,-1.55
2023-01-15T21:41:11.927Z,-1.52
2023-01-15T21:43:59.220Z,-1.51
2023-01-15T21:46:28.502Z,-1.50
2023-01-15T21:48:58.217Z,-1.49
2023-01-15T21:51:27.101Z,-1.51
2023-01-15T21:54:00.040Z,-1.53
2023-01-15T21:56:28.843Z,-1.57
2023-01-15T21:58:58.984Z,-1.59
2023-01-15T22:01:27.626Z,-1.62
2023-01-15T22:03:56.319Z,-1.74
2023-01-15T22:06:24.861Z,-1.73
2023-01-15T22:08:55.000Z,-1.74
2023-01-15T22:11:24.356Z,-1.74
2023-01-15T22:13:53.530Z,-1.72
2023-01-15T22:16:24.470Z,-1.72
2023-01-15T22:18:53.252Z,-1.73
2023-01-15T22:21:22.558Z,-1.72
2023-01-15T22:23:51.615Z,-1.75
2023-01-15T22:26:20.130Z,-1.82
2023-01-15T22:28:48.882Z,-1.87
2023-01-15T22:31:18.034Z,-1.89
2023-01-15T22:33:48.006Z,-1.91
2023-01-15T22:36:17.552Z,-1.90
2023-01-15T22:38:47.212Z,-1.91
2023-01-15T22:41:15.499Z,-1.97
2023-01-15T22:43:44.102Z,-2.09
2023-01-15T22:46:13.684Z,-2.03
2023-01-15T22:48:42.646Z,-2.03
2023-01-15T22:51:12.364Z,-2.07
2023-01-15T22:53:40.759Z,-2.10
2023-01-15T22:56:09.116Z,-2.09
2023-01-15T22:58:42.473Z,-2.10
2023-01-15T23:01:11.303Z,-2.11
2023-01-15T23:03:39.555Z,-2.12
2023-01-15T23:06:08.946Z,-2.15
2023-01-15T23:08:58.874Z,-2.18
2023-01-15T23:11:27.479Z,-2.22
2023-01-15T23:13:56.183Z,-2.29
2023-01-15T23:16:24.814Z,-2.31
2023-01-15T23:18:53.133Z,-2.33
2023-01-15T23:21:22.453Z,-2.34
2023-01-15T23:23:54.379Z,-2.32
2023-01-15T23:26:25.071Z,-2.34
2023-01-15T23:28:54.228Z,-2.36
2023-01-15T23:31:23.618Z,-2.41
2023-01-15T23:33:52.289Z,-2.39
2023-01-15T23:36:20.679Z,-2.38
2023-01-15T23:38:49.421Z,-2.39
2023-01-15T23:41:18.861Z,-2.41
2023-01-15T23:44:06.291Z,-2.43
2023-01-15T23:46:35.422Z,-2.47
2023-01-15T23:49:05.472Z,-2.54
2023-01-15T23:51:34.424Z,-2.57
2023-01-15T23:54:03.321Z,-2.57
2023-01-15T23:56:32.353Z,-2.59
2023-01-15T23:59:02.565Z,-2.61
